Ingleside, Canada
Current Conditions -  °F | °C
As of 8:53 AM on Wednesday 22 Oct 2014 (Local Time) from KMSS Reporting Station
Overcast Overcast  
Wind Chill: 41°   Ceiling: 2300
Heat Index: 46°   Visibility: 10mi
Dew Point: 35°   Wind: 12mph
Humidity: 66%   Direction: 40°NE
Pressure: 30.25"   Gusts: NA
Location:  45°N, 75°W
Report Text: KMSS 221253Z AUTO 04010KT 10SM OVC023 08/02 A3025 RMK AO2 SLP247 T00780017
Loading
Personal Weather Stations






























Interactive Weather Map
Tropical Storm Tracking
New forecast layout! Learn more

10-Day Weather Forecast

Advertisements
Track Severe Weather on mobile